createdAt,value
2018-11-20T00:00:44.311Z,15.93
2018-11-20T00:03:30.809Z,16.05
2018-11-20T00:06:17.336Z,10.85
2018-11-20T00:09:03.820Z,13.70
2018-11-20T00:11:50.311Z,17.65
2018-11-20T00:14:36.782Z,7.80
2018-11-20T00:17:23.480Z,7.72
2018-11-20T00:20:09.976Z,10.28
2018-11-20T00:22:56.482Z,8.50
2018-11-20T00:25:42.976Z,8.25
2018-11-20T00:28:52.589Z,6.42
2018-11-20T00:31:39.282Z,8.93
2018-11-20T00:34:38.993Z,9.28
2018-11-20T00:37:25.483Z,9.53
2018-11-20T00:40:12.031Z,9.60
2018-11-20T00:42:58.513Z,19.35
2018-11-20T00:46:08.180Z,9.40
2018-11-20T00:48:54.658Z,10.38
2018-11-20T00:52:04.470Z,6.10
2018-11-20T00:54:50.987Z,6.20
2018-11-20T00:57:37.511Z,7.80
2018-11-20T01:00:24.004Z,9.43
2018-11-20T01:03:10.519Z,11.88
2018-11-20T01:05:56.995Z,6.92
2018-11-20T01:08:43.530Z,7.65
2018-11-20T01:11:30.020Z,6.55
2018-11-20T01:14:16.549Z,8.45
2018-11-20T01:17:03.022Z,5.87
2018-11-20T01:20:13.271Z,6.55
2018-11-20T01:23:23.225Z,5.53
2018-11-20T01:26:32.535Z,6.42
2018-11-20T01:29:19.028Z,9.00
2018-11-20T01:32:28.996Z,10.95
2018-11-20T01:35:15.516Z,7.87
2018-11-20T01:38:02.179Z,10.05
2018-11-20T07:27:12.638Z,9.85
2018-11-20T19:45:40.975Z,5.15
2018-11-20T19:48:27.509Z,1.70
2018-11-20T19:51:14.016Z,2.87
2018-11-20T19:54:00.900Z,2.47
2018-11-20T19:59:53.542Z,2.10
2018-11-20T20:02:40.232Z,2.30
2018-11-20T20:05:50.811Z,2.25
2018-11-20T20:08:37.189Z,1.50
2018-11-20T20:11:24.003Z,2.30
2018-11-20T20:14:34.203Z,3.08
2018-11-20T20:17:20.813Z,2.60
2018-11-20T20:20:07.378Z,1.70
2018-11-20T20:22:53.900Z,3.55
2018-11-20T20:25:40.392Z,1.60
2018-11-20T20:28:26.875Z,1.52
2018-11-20T20:31:36.387Z,1.60
2018-11-20T20:34:36.906Z,1.40
2018-11-20T20:37:46.660Z,2.15
2018-11-20T20:40:33.153Z,3.40
2018-11-20T20:43:19.657Z,2.70
2018-11-20T20:46:06.194Z,2.08
2018-11-20T20:48:52.680Z,2.42
2018-11-20T20:51:39.185Z,1.70
2018-11-20T20:54:25.693Z,3.80
2018-11-20T20:57:12.193Z,1.40
2018-11-20T20:59:59.164Z,3.05
2018-11-20T21:02:45.913Z,5.55
2018-11-20T21:05:32.541Z,1.37
2018-11-20T21:08:19.062Z,1.67
2018-11-20T21:11:29.110Z,1.30
2018-11-20T21:14:36.214Z,1.77
2018-11-20T21:17:22.714Z,1.80
2018-11-20T21:20:32.629Z,2.27
2018-11-20T21:23:19.104Z,2.55
2018-11-20T21:26:05.781Z,2.50
2018-11-20T21:28:52.334Z,2.27
2018-11-20T21:31:39.227Z,1.30
2018-11-20T21:34:25.702Z,2.52
2018-11-20T21:37:12.256Z,4.80
2018-11-20T21:39:58.830Z,1.30
2018-11-20T21:43:08.957Z,1.92
2018-11-20T21:46:19.417Z,3.30
2018-11-20T21:49:06.135Z,1.92
2018-11-20T21:51:52.621Z,1.30
2018-11-20T21:54:39.308Z,1.40
2018-11-20T21:57:25.891Z,1.45
2018-11-20T22:00:12.422Z,1.50
2018-11-20T22:02:58.966Z,3.30
2018-11-20T22:05:45.473Z,1.95
2018-11-20T22:08:32.136Z,1.77
2018-11-20T22:11:18.700Z,1.65
2018-11-20T22:14:05.172Z,2.10
2018-11-20T22:16:51.791Z,1.60
2018-11-20T22:20:01.031Z,1.60
2018-11-20T22:22:47.833Z,1.65
2018-11-20T22:25:34.364Z,1.75
2018-11-20T22:28:21.027Z,1.40
2018-11-20T22:31:07.541Z,1.72
2018-11-20T22:34:17.188Z,1.70
2018-11-20T22:37:26.008Z,3.33
2018-11-20T22:40:12.535Z,1.40
2018-11-20T22:42:59.177Z,1.60
2018-11-20T22:45:45.827Z,2.85
2018-11-20T22:48:32.297Z,3.15
2018-11-20T22:51:18.966Z,1.50
2018-11-20T22:54:29.727Z,2.08
2018-11-20T22:57:16.245Z,1.55
2018-11-20T23:00:26.402Z,1.40
2018-11-20T23:03:14.009Z,1.85
2018-11-20T23:06:01.374Z,1.80
2018-11-20T23:08:47.971Z,2.45
2018-11-20T23:11:34.682Z,2.17
2018-11-20T23:14:21.194Z,1.50
2018-11-20T23:17:07.670Z,2.30
2018-11-20T23:19:54.167Z,2.02
2018-11-20T23:23:02.898Z,1.75
2018-11-20T23:26:13.236Z,3.58
2018-11-20T23:28:59.737Z,1.75
2018-11-20T23:31:46.201Z,3.10
2018-11-20T23:34:32.736Z,2.12
2018-11-20T23:37:19.213Z,2.37
2018-11-20T23:40:05.813Z,2.25
2018-11-20T23:42:52.286Z,2.95
2018-11-20T23:45:38.802Z,1.57
2018-11-20T23:48:25.276Z,1.50
2018-11-20T23:51:11.830Z,1.50
2018-11-20T23:53:58.456Z,1.92
2018-11-20T23:56:44.984Z,1.42
2018-11-20T23:59:31.526Z,1.50
